Time;durP1;ratioP1;P1;durP2;ratioP2;P2;SDS_P1;SDS_P2;PMS_P1;PMS_P2;Temp;Humidity;BMP_temperature;BMP_pressure;BME280_temperature;BME280_humidity;BME280_pressure;Samples;Min_cycle;Max_cycle;Signal;HPM_P1;HPM_P2
2020/12/24 00:00:45;;;;;;;98.93;56.90;;;;;;;7.15;74.29;99341.56;118129;1148;104461;-72
2020/12/24 00:03:13;;;;;;;112.87;69.73;;;;;;;7.17;74.41;99331.63;118188;1148;104556;-71
2020/12/24 00:05:42;;;;;;;67.80;37.43;;;;;;;7.18;75.20;99330.63;118205;1148;104455;-71
2020/12/24 00:08:10;;;;;;;67.00;37.05;;;;;;;7.17;75.27;99324.50;118156;1148;104632;-72
2020/12/24 00:10:38;;;;;;;73.13;45.23;;;;;;;7.20;75.20;99320.73;118144;1148;104450;-73
2020/12/24 00:13:06;;;;;;;51.10;30.20;;;;;;;7.22;74.48;99313.44;118162;1148;104473;-73
2020/12/24 00:15:34;;;;;;;52.23;31.97;;;;;;;7.21;74.51;99306.45;118115;1148;104550;-73
2020/12/24 00:18:02;;;;;;;56.45;35.30;;;;;;;7.21;75.33;99301.97;118177;1148;104530;-73
2020/12/24 00:20:30;;;;;;;51.45;31.35;;;;;;;7.24;74.71;99306.16;118171;1148;104547;-72
2020/12/24 00:22:58;;;;;;;46.93;27.07;;;;;;;7.27;74.61;99292.56;118266;1148;104611;-73
2020/12/24 00:25:26;;;;;;;50.85;31.20;;;;;;;7.26;75.12;99297.05;118144;1148;104527;-72
2020/12/24 00:27:55;;;;;;;48.27;30.50;;;;;;;7.28;74.75;99291.59;118118;1145;104543;-72
2020/12/24 00:30:23;;;;;;;63.63;41.73;;;;;;;7.32;74.69;99289.46;118192;1148;104520;-73
2020/12/24 00:32:51;;;;;;;71.57;48.57;;;;;;;7.32;75.56;99284.16;118337;1148;104476;-72
2020/12/24 00:35:19;;;;;;;75.13;43.07;;;;;;;7.31;75.29;99272.69;118306;1148;104493;-72
2020/12/24 00:37:47;;;;;;;65.65;37.60;;;;;;;7.32;75.14;99269.05;118142;1148;104638;-72
2020/12/24 00:40:15;;;;;;;97.85;61.30;;;;;;;7.33;75.31;99260.09;118342;1148;104598;-72
2020/12/24 00:42:43;;;;;;;86.63;53.40;;;;;;;7.37;75.19;99261.47;118391;1148;104535;-72
2020/12/24 00:45:11;;;;;;;96.27;60.63;;;;;;;7.41;75.43;99252.20;118275;1148;104607;-72
2020/12/24 00:47:39;;;;;;;75.37;43.73;;;;;;;7.43;75.06;99238.77;118372;1148;104643;-73
2020/12/24 00:50:08;;;;;;;64.03;39.70;;;;;;;7.43;76.10;99236.13;118355;1148;104538;-76
2020/12/24 00:52:37;;;;;;;47.97;28.03;;;;;;;7.44;76.01;99235.11;118454;1148;105034;-72
2020/12/24 00:55:06;;;;;;;49.63;28.87;;;;;;;7.44;75.47;99235.94;118159;1148;104595;-72
2020/12/24 00:57:34;;;;;;;63.67;37.67;;;;;;;7.44;75.47;99235.94;118087;1148;104562;-72
2020/12/24 01:00:05;;;;;;;114.93;72.97;;;;;;;7.43;74.92;99217.55;118114;1148;104580;-72
2020/12/24 01:02:33;;;;;;;69.33;40.47;;;;;;;7.40;76.35;99216.02;118205;1148;104486;-72
2020/12/24 01:05:01;;;;;;;68.70;39.50;;;;;;;7.38;75.67;99210.04;118130;1148;104537;-72
2020/12/24 01:07:29;;;;;;;57.60;34.80;;;;;;;7.38;76.09;99209.22;118180;1148;104530;-73
2020/12/24 01:09:57;;;;;;;57.30;34.80;;;;;;;7.40;76.27;99201.92;118306;1148;104473;-73
2020/12/24 01:12:25;;;;;;;53.40;31.97;;;;;;;7.40;75.71;99193.96;118287;1148;104467;-72
2020/12/24 01:14:53;;;;;;;43.47;26.43;;;;;;;7.38;76.21;99191.46;118173;1148;104580;-72
2020/12/24 01:17:21;;;;;;;48.45;30.30;;;;;;;7.38;75.20;99188.81;118197;1148;104575;-73
2020/12/24 01:19:50;;;;;;;48.40;30.13;;;;;;;7.37;75.72;99171.23;118372;1148;104628;-74
2020/12/24 01:22:18;;;;;;;56.80;33.07;;;;;;;7.35;75.64;99169.71;118476;1148;104547;-73
2020/12/24 01:24:46;;;;;;;58.00;35.37;;;;;;;7.34;75.88;99157.45;118410;1148;104896;-72
2020/12/24 01:27:14;;;;;;;87.13;50.67;;;;;;;7.34;76.47;99160.93;118271;1148;104525;-72
2020/12/24 01:29:42;;;;;;;94.23;53.63;;;;;;;7.36;75.91;99148.33;118352;1148;104495;-71
2020/12/24 01:32:10;;;;;;;57.53;32.43;;;;;;;7.38;76.29;99146.34;118525;1148;104483;-71
2020/12/24 01:34:38;;;;;;;45.67;26.87;;;;;;;7.36;76.56;99137.72;118445;1148;104474;-72
2020/12/24 01:37:07;;;;;;;44.47;25.07;;;;;;;7.35;76.57;99130.77;118113;1148;104613;-72
2020/12/24 01:39:35;;;;;;;41.80;24.33;;;;;;;7.35;76.04;99128.11;118204;1148;104578;-72
2020/12/24 01:42:03;;;;;;;45.40;26.50;;;;;;;7.38;76.21;99126.95;118404;1148;104473;-72
2020/12/24 01:44:31;;;;;;;41.70;24.93;;;;;;;7.37;75.73;99119.96;118070;1148;104547;-73
2020/12/24 01:46:59;;;;;;;39.23;25.57;;;;;;;7.38;76.71;99114.50;118208;1148;104508;-73
2020/12/24 01:49:27;;;;;;;32.70;20.75;;;;;;;7.37;76.03;99104.89;118081;1148;104501;-73
2020/12/24 01:51:57;;;;;;;26.90;17.83;;;;;;;7.39;76.64;99102.05;118225;1148;104660;-72
2020/12/24 01:54:27;;;;;;;35.57;20.37;;;;;;;7.36;75.64;99097.91;118274;1148;104454;-72
2020/12/24 01:56:55;;;;;;;32.13;19.77;;;;;;;7.36;76.18;99095.25;118296;1148;104988;-72
2020/12/24 01:59:23;;;;;;;31.33;19.53;;;;;;;7.38;76.72;99090.61;118390;1148;104550;-73
2020/12/24 02:01:52;;;;;;;32.70;19.05;;;;;;;7.37;76.16;99085.46;118262;1148;104890;-72
2020/12/24 02:04:21;;;;;;;32.45;19.70;;;;;;;7.36;76.41;99083.81;118097;1148;104543;-73
2020/12/24 02:06:53;;;;;;;32.23;19.37;;;;;;;7.34;76.74;99081.31;118146;1148;104470;-72
2020/12/24 02:09:21;;;;;;;31.60;19.43;;;;;;;7.33;76.60;99074.34;118072;1148;104526;-72
2020/12/24 02:11:49;;;;;;;29.20;18.23;;;;;;;7.35;76.84;99069.73;118091;1148;104540;-73
2020/12/24 02:14:18;;;;;;;36.30;21.00;;;;;;;7.35;76.72;99064.42;118094;1148;104556;-72
2020/12/24 02:16:46;;;;;;;30.90;18.05;;;;;;;7.34;76.76;99059.27;118297;1148;104694;-73
2020/12/24 02:19:14;;;;;;;27.83;16.90;;;;;;;7.32;77.16;99051.47;118325;1148;104548;-74
2020/12/24 02:21:42;;;;;;;30.23;17.03;;;;;;;7.33;76.97;99047.80;118178;1148;104974;-73
2020/12/24 02:24:10;;;;;;;29.30;17.60;;;;;;;7.35;76.94;99050.30;118118;1148;104524;-73
2020/12/24 02:26:38;;;;;;;30.65;18.00;;;;;;;7.37;76.81;99035.05;118179;1148;104532;-73
2020/12/24 02:29:06;;;;;;;29.10;18.45;;;;;;;7.39;76.54;99035.70;118109;1148;104883;-73
2020/12/24 02:31:34;;;;;;;25.83;16.37;;;;;;;7.39;77.27;99035.70;118308;1148;104470;-72
2020/12/24 02:34:03;;;;;;;30.03;18.33;;;;;;;7.39;77.31;99020.64;118269;1148;104912;-72
2020/12/24 02:36:31;;;;;;;28.87;16.20;;;;;;;7.40;76.84;99016.16;118542;1148;104603;-73
2020/12/24 02:38:59;;;;;;;27.97;17.10;;;;;;;7.40;77.18;99016.97;118259;1148;104497;-74
2020/12/24 02:41:27;;;;;;;30.70;19.03;;;;;;;7.41;76.59;99013.34;118234;1148;105164;-73
2020/12/24 02:43:55;;;;;;;32.63;19.10;;;;;;;7.41;76.92;99010.69;118158;1148;104451;-74
2020/12/24 02:46:24;;;;;;;49.53;26.67;;;;;;;7.44;77.71;99001.56;118234;1148;104618;-73
2020/12/24 02:48:52;;;;;;;44.30;25.17;;;;;;;7.46;77.11;99000.39;118152;1148;104543;-74
2020/12/24 02:51:20;;;;;;;31.73;18.47;;;;;;;7.50;77.86;98994.77;118132;1148;104565;-73
2020/12/24 02:53:48;;;;;;;37.67;22.33;;;;;;;7.50;77.40;98994.77;118197;1148;104948;-73
2020/12/24 02:56:16;;;;;;;33.90;20.15;;;;;;;7.52;76.96;98992.78;118253;1147;104617;-73
2020/12/24 02:58:44;;;;;;;29.53;19.87;;;;;;;7.51;77.57;98988.48;118222;1148;104473;-73
2020/12/24 03:01:12;;;;;;;24.13;15.93;;;;;;;7.50;77.11;98989.45;118266;1148;104479;-73
2020/12/24 03:03:40;;;;;;;31.67;23.47;;;;;;;7.52;77.70;98990.95;118111;1148;104483;-73
2020/12/24 03:06:08;;;;;;;35.17;27.47;;;;;;;7.51;77.28;98991.14;118192;1148;104617;-73
2020/12/24 03:08:37;;;;;;;27.97;20.10;;;;;;;7.53;77.22;98999.76;118290;1148;104477;-72
2020/12/24 03:11:05;;;;;;;21.47;15.27;;;;;;;7.54;76.88;98977.52;118270;1148;104543;-72
2020/12/24 03:13:33;;;;;;;21.05;14.85;;;;;;;7.55;78.24;98989.80;118370;1148;104546;-74
2020/12/24 03:16:01;;;;;;;17.55;11.75;;;;;;;7.60;77.75;98987.47;118418;1148;104682;-74
2020/12/24 03:18:29;;;;;;;17.13;10.87;;;;;;;7.64;77.01;98984.33;118242;1148;104546;-73
2020/12/24 03:20:57;;;;;;;17.33;12.27;;;;;;;7.69;77.88;98977.70;118303;1148;104566;-74
2020/12/24 03:23:25;;;;;;;14.77;9.90;;;;;;;7.68;78.13;98974.22;118347;1148;104516;-71
2020/12/24 03:25:53;;;;;;;13.20;8.43;;;;;;;7.70;77.30;98968.72;118382;1148;104527;-73
2020/12/24 03:28:21;;;;;;;13.60;9.20;;;;;;;7.75;77.54;98974.37;118088;1148;104550;-71
2020/12/24 03:30:50;;;;;;;14.07;9.37;;;;;;;7.79;77.24;98965.89;118110;1148;104545;-72
2020/12/24 03:33:18;;;;;;;13.90;9.90;;;;;;;7.80;77.62;98964.91;118119;1148;104553;-73
2020/12/24 03:35:46;;;;;;;14.00;9.35;;;;;;;7.81;77.34;98955.96;118338;1148;104547;-74
2020/12/24 03:38:14;;;;;;;12.20;8.40;;;;;;;7.85;78.19;98951.97;118398;1148;104531;-70
2020/12/24 03:40:42;;;;;;;11.97;8.40;;;;;;;7.90;77.78;98951.45;118077;1148;104473;-72
2020/12/24 03:43:10;;;;;;;13.23;8.93;;;;;;;7.94;77.98;98943.98;118241;1148;104477;-72
2020/12/24 03:45:38;;;;;;;12.63;8.97;;;;;;;7.96;77.75;98937.49;118292;1148;104532;-70
2020/12/24 03:48:06;;;;;;;11.83;8.67;;;;;;;7.98;77.64;98924.05;118298;1148;104550;-73
2020/12/24 03:50:35;;;;;;;12.87;9.30;;;;;;;8.00;77.89;98922.05;118274;1148;104531;-73
2020/12/24 03:53:03;;;;;;;11.93;8.20;;;;;;;7.99;77.73;98921.23;118124;1148;104471;-71
2020/12/24 03:55:31;;;;;;;14.60;9.55;;;;;;;8.02;77.98;98915.56;118239;1148;104604;-71
2020/12/24 03:58:00;;;;;;;10.85;8.30;;;;;;;8.08;78.12;98914.05;118152;1148;104868;-75
2020/12/24 04:00:28;;;;;;;13.80;9.77;;;;;;;8.09;77.88;98915.73;118191;1148;104444;-74
2020/12/24 04:02:56;;;;;;;13.40;9.97;;;;;;;8.06;78.11;98911.59;118130;1148;104504;-72
2020/12/24 04:05:24;;;;;;;13.27;9.20;;;;;;;8.10;77.83;98916.55;118264;1148;105021;-71
2020/12/24 04:07:52;;;;;;;13.03;9.43;;;;;;;8.17;78.09;98905.07;118116;1148;104531;-72
2020/12/24 04:10:20;;;;;;;14.40;10.77;;;;;;;8.21;78.48;98901.06;118143;1148;104473;-72
2020/12/24 04:12:48;;;;;;;14.73;10.13;;;;;;;8.27;78.00;98902.21;118181;1148;104471;-71
2020/12/24 04:15:17;;;;;;;16.97;11.93;;;;;;;8.30;78.38;98901.06;118162;1148;104578;-71
2020/12/24 04:17:45;;;;;;;16.37;11.17;;;;;;;8.34;78.10;98907.69;118584;1147;104527;-73
2020/12/24 04:20:14;;;;;;;14.37;9.93;;;;;;;8.40;78.06;98912.31;118805;1147;104902;-72
2020/12/24 04:22:43;;;;;;;14.90;10.65;;;;;;;8.44;78.43;98903.02;118836;1148;104448;-73
2020/12/24 04:25:11;;;;;;;15.37;10.80;;;;;;;8.48;78.48;98904.33;118706;1147;104625;-73
2020/12/24 04:27:39;;;;;;;16.55;11.25;;;;;;;8.52;78.37;98896.84;118486;1147;104617;-73
2020/12/24 04:30:08;;;;;;;14.80;10.60;;;;;;;8.57;78.52;98897.97;118514;1147;104550;-74
2020/12/24 04:32:36;;;;;;;15.40;10.90;;;;;;;8.60;78.46;98894.13;118716;1147;104542;-73
2020/12/24 04:35:05;;;;;;;16.27;11.87;;;;;;;8.62;78.95;98895.63;118549;1147;104549;-74
2020/12/24 04:37:33;;;;;;;17.67;11.97;;;;;;;8.65;78.78;98887.29;118508;1147;104511;-73
2020/12/24 04:40:01;;;;;;;17.27;12.30;;;;;;;8.69;79.05;98885.11;118484;1147;104553;-72
2020/12/24 04:42:31;;;;;;;16.43;11.10;;;;;;;8.74;79.10;98887.27;118600;1147;104450;-71
2020/12/24 04:45:00;;;;;;;16.05;11.75;;;;;;;8.78;78.95;98897.37;118664;1147;104475;-73
2020/12/24 04:47:30;;;;;;;15.87;11.20;;;;;;;8.84;78.59;98893.19;118714;1147;104525;-72
2020/12/24 04:50:00;;;;;;;16.27;11.13;;;;;;;8.90;78.92;98889.81;119048;1147;104486;-72
2020/12/24 04:52:29;;;;;;;16.57;11.57;;;;;;;8.95;78.72;98887.47;118667;1147;104550;-75
2020/12/24 04:55:02;;;;;;;13.60;9.47;;;;;;;9.00;79.31;98882.42;118647;1147;104628;-75
2020/12/24 04:57:30;;;;;;;25.13;16.17;;;;;;;9.06;78.84;98886.21;118588;1147;105055;-72
2020/12/24 05:00:00;;;;;;;31.50;19.30;;;;;;;9.11;78.81;98891.02;118568;1147;104487;-72
2020/12/24 05:02:28;;;;;;;24.03;15.80;;;;;;;9.16;79.64;98891.30;118927;1148;104481;-72
2020/12/24 05:04:56;;;;;;;28.67;18.80;;;;;;;9.21;78.98;98897.74;118717;1148;104988;-73
2020/12/24 05:07:24;;;;;;;45.40;28.05;;;;;;;9.26;79.79;98902.55;118747;1147;104563;-73
2020/12/24 05:09:52;;;;;;;45.40;27.00;;;;;;;9.34;79.74;98891.83;118584;1147;104585;-73
2020/12/24 05:12:31;;;;;;;39.70;23.55;;;;;;;9.40;79.46;98885.78;118634;1147;105144;-72
2020/12/24 05:15:00;;;;;;;29.93;18.10;;;;;;;9.46;79.49;98888.75;118793;1148;104545;-72
2020/12/24 05:17:28;;;;;;;92.50;47.73;;;;;;;9.51;79.40;98894.38;118518;1146;104444;-72
2020/12/24 05:20:07;;;;;;;56.27;29.27;;;;;;;9.53;79.54;98897.69;118562;1147;104547;-75
2020/12/24 05:22:35;;;;;;;131.27;74.87;;;;;;;9.57;79.52;98898.98;118890;1147;104506;-74
2020/12/24 05:25:11;;;;;;;66.27;37.80;;;;;;;9.59;79.99;98908.43;118984;1147;104522;-71
2020/12/24 05:27:39;;;;;;;28.77;19.03;;;;;;;9.64;79.86;98921.20;118998;1148;104599;-73
2020/12/24 05:30:08;;;;;;;39.60;32.27;;;;;;;9.67;79.74;98915.52;119050;1147;104547;-72
2020/12/24 05:32:36;;;;;;;16.00;11.70;;;;;;;9.68;79.80;98916.34;118631;1148;104556;-73
2020/12/24 05:35:14;;;;;;;60.93;40.50;;;;;;;9.72;79.83;98910.49;118952;1147;104450;-72
2020/12/24 05:37:42;;;;;;;51.30;32.47;;;;;;;9.73;79.69;98904.14;118832;1147;104522;-72
2020/12/24 05:40:22;;;;;;;31.15;20.45;;;;;;;9.76;78.85;98901.13;119050;1147;104546;-72
2020/12/24 05:42:58;;;;;;;148.20;102.93;;;;;;;9.78;79.61;98896.44;118876;1147;104972;-72
2020/12/24 05:45:29;;;;;;;76.43;56.70;;;;;;;9.80;79.62;98899.75;119234;1147;104724;-72
2020/12/24 05:48:08;;;;;;;95.25;74.75;;;;;;;9.81;79.60;98901.42;119124;1147;104485;-71
2020/12/24 05:50:37;;;;;;;64.33;48.57;;;;;;;9.85;80.10;98895.71;118982;1147;104449;-72
2020/12/24 05:53:10;;;;;;;46.27;38.50;;;;;;;9.87;79.65;98889.18;119051;1148;104550;-71
2020/12/24 05:55:39;;;;;;;37.33;28.30;;;;;;;9.89;79.44;98886.34;119030;1147;104526;-72
2020/12/24 05:58:08;;;;;;;77.33;61.67;;;;;;;9.93;79.22;98879.63;118967;1147;104548;-72
2020/12/24 06:00:39;;;;;;;85.67;59.17;;;;;;;9.94;79.53;98870.64;118976;1148;104550;-72
2020/12/24 06:03:12;;;;;;;55.20;37.83;;;;;;;9.95;79.34;98864.28;118957;1147;104580;-73
2020/12/24 06:05:55;;;;;;;42.60;30.40;;;;;;;9.95;79.32;98866.95;119018;1147;104647;-74
2020/12/24 06:08:28;;;;;;;25.63;19.47;;;;;;;9.96;79.95;98871.28;119035;1147;104542;-71
2020/12/24 06:11:07;;;;;;;41.07;32.90;;;;;;;9.98;79.25;98879.92;119027;1147;104455;-71
2020/12/24 06:13:41;;;;;;;22.87;17.87;;;;;;;9.99;79.26;98877.08;118948;1147;104531;-72
2020/12/24 06:16:11;;;;;;;16.25;13.05;;;;;;;10.02;79.25;98878.55;118950;1147;104511;-72
2020/12/24 06:18:41;;;;;;;10.33;8.47;;;;;;;10.04;79.21;98881.84;119000;1147;104546;-72
2020/12/24 06:21:17;;;;;;;10.33;8.73;;;;;;;10.06;79.36;98882.48;119006;1147;104500;-72
2020/12/24 06:23:48;;;;;;;9.60;8.00;;;;;;;10.08;79.12;98879.64;119011;1148;104451;-71
2020/12/24 06:26:23;;;;;;;11.63;8.13;;;;;;;10.08;79.98;98875.13;119009;1148;104553;-72
2020/12/24 06:28:59;;;;;;;11.73;9.90;;;;;;;10.08;79.16;98879.64;118976;1147;104529;-72
2020/12/24 06:31:28;;;;;;;10.43;7.40;;;;;;;10.09;79.29;98876.80;118680;1147;104553;-73
2020/12/24 06:33:56;;;;;;;11.37;9.93;;;;;;;10.10;80.23;98888.28;118580;1147;104592;-71
2020/12/24 06:36:36;;;;;;;36.67;28.50;;;;;;;10.11;80.01;98877.45;118655;1147;104526;-71
2020/12/24 06:39:05;;;;;;;25.10;18.53;;;;;;;10.10;79.70;98882.95;118907;1147;104553;-72
2020/12/24 06:41:37;;;;;;;18.13;13.80;;;;;;;10.11;79.27;98884.62;118804;1147;104492;-74
2020/12/24 06:44:08;;;;;;;14.53;12.10;;;;;;;10.11;79.67;98880.11;118760;1148;105008;-72
2020/12/24 06:46:59;;;;;;;26.17;21.60;;;;;;;10.14;79.71;98879.75;119016;1147;104741;-72
2020/12/24 06:49:31;;;;;;;15.20;11.15;;;;;;;10.15;79.35;98870.73;119022;1147;104559;-72
2020/12/24 06:52:00;;;;;;;11.10;9.10;;;;;;;10.17;79.98;98873.22;118879;1147;104502;-72
2020/12/24 06:54:28;;;;;;;12.00;10.00;;;;;;;10.18;79.21;98875.70;118753;1147;104460;-72
2020/12/24 06:57:24;;;;;;;15.60;12.97;;;;;;;10.19;79.62;98877.34;118553;1147;104956;-72
2020/12/24 07:00:19;;;;;;;12.17;9.03;;;;;;;10.20;79.23;98879.02;118367;1147;104946;-72
2020/12/24 07:02:49;;;;;;;13.20;9.67;;;;;;;10.20;79.22;98884.34;118459;1147;104543;-71
2020/12/24 07:05:45;;;;;;;10.00;7.60;;;;;;;10.18;79.95;98885.52;118623;1147;104571;-72
2020/12/24 07:08:47;;;;;;;10.90;6.60;;;;;;;10.16;79.11;98877.73;119127;1147;104510;-72
2020/12/24 07:11:42;;;;;;;7.90;6.20;;;;;;;10.15;79.12;98885.91;118700;1147;106185;-72
2020/12/24 07:14:27;;;;;;;7.07;5.47;;;;;;;10.12;79.64;98887.11;118440;1147;104598;-72
2020/12/24 07:16:56;;;;;;;8.03;6.57;;;;;;;10.11;79.24;98887.29;118459;1147;104480;-72
2020/12/24 07:19:30;;;;;;;6.27;4.23;;;;;;;10.07;79.70;98886.00;118528;1147;104547;-73
2020/12/24 07:21:59;;;;;;;6.15;4.90;;;;;;;10.06;79.23;98882.48;118949;1147;104514;-73
2020/12/24 07:24:29;;;;;;;5.80;4.10;;;;;;;10.07;79.54;98881.49;118906;1147;104412;-73
2020/12/24 07:26:58;;;;;;;52.33;33.70;;;;;;;10.07;79.63;98900.15;119070;1148;104547;-72
2020/12/24 07:29:28;;;;;;;32.80;21.33;;;;;;;10.05;79.19;98891.52;119093;1148;104620;-74
2020/12/24 07:32:00;;;;;;;44.17;31.03;;;;;;;10.05;79.52;98899.50;118854;1147;104548;-72
2020/12/24 07:34:30;;;;;;;47.43;33.40;;;;;;;10.02;79.21;98899.86;118788;1147;104467;-72
2020/12/24 07:36:58;;;;;;;41.35;29.80;;;;;;;10.03;79.90;98901.53;118577;1147;104461;-72
2020/12/24 07:39:27;;;;;;;31.70;22.50;;;;;;;10.03;79.79;98906.86;119020;1147;104639;-72
2020/12/24 07:41:55;;;;;;;26.00;20.00;;;;;;;10.03;79.31;98906.86;118966;1147;104553;-72
2020/12/24 07:44:23;;;;;;;25.25;21.00;;;;;;;10.02;79.73;98902.52;118945;1147;104482;-72
2020/12/24 07:46:53;;;;;;;27.77;22.30;;;;;;;10.03;79.76;98898.86;118938;1147;104554;-72
2020/12/24 07:49:21;;;;;;;32.65;26.55;;;;;;;10.04;79.50;98900.50;119061;1147;104628;-71
2020/12/24 07:51:56;;;;;;;15.87;12.87;;;;;;;10.04;79.26;98895.17;119008;1148;104556;-71
2020/12/24 07:54:28;;;;;;;14.63;10.67;;;;;;;10.05;79.18;98899.50;118941;1147;104467;-71
2020/12/24 07:56:56;;;;;;;11.05;8.70;;;;;;;10.05;79.90;98899.50;119065;1148;104540;-70
2020/12/24 07:59:25;;;;;;;14.20;11.50;;;;;;;10.05;79.97;98920.83;119007;1147;104706;-73
2020/12/24 08:02:04;;;;;;;8.13;6.10;;;;;;;10.05;78.92;98912.83;118941;1147;104578;-71
2020/12/24 08:04:32;;;;;;;8.10;5.87;;;;;;;10.06;79.51;98913.66;119020;1147;104831;-71
2020/12/24 08:07:00;;;;;;;8.30;6.40;;;;;;;10.05;79.45;98912.83;118864;1147;104470;-71
2020/12/24 08:09:28;;;;;;;7.10;6.15;;;;;;;10.05;78.81;98902.17;119017;1147;104537;-73
2020/12/24 08:11:58;;;;;;;7.33;5.80;;;;;;;10.06;79.23;98893.15;118924;1147;104525;-69
2020/12/24 08:14:28;;;;;;;8.95;5.85;;;;;;;10.09;79.58;98898.13;118949;1147;104876;-71
2020/12/24 08:17:08;;;;;;;8.10;5.70;;;;;;;10.11;79.02;98905.95;118863;1147;104582;-70
2020/12/24 08:19:41;;;;;;;7.55;5.80;;;;;;;10.14;78.97;98903.74;119115;1148;104545;-72
2020/12/24 08:22:18;;;;;;;9.57;7.40;;;;;;;10.13;79.11;98904.73;118863;1147;104593;-72
2020/12/24 08:24:46;;;;;;;8.03;5.80;;;;;;;10.15;79.10;98908.05;118853;1147;104552;-70
2020/12/24 08:27:15;;;;;;;9.77;7.87;;;;;;;10.16;78.94;98920.38;118613;1147;104448;-70
2020/12/24 08:29:44;;;;;;;8.57;6.10;;;;;;;10.19;79.37;98922.66;118813;1148;104546;-72
2020/12/24 08:32:13;;;;;;;8.20;5.85;;;;;;;10.21;78.86;98901.98;119003;1147;104463;-70
2020/12/24 08:34:41;;;;;;;13.07;10.27;;;;;;;10.23;78.78;98909.80;118726;1147;104502;-70
2020/12/24 08:37:09;;;;;;;12.17;8.57;;;;;;;10.25;79.04;98906.95;118290;1147;104541;-70
2020/12/24 08:39:37;;;;;;;11.50;7.30;;;;;;;10.28;79.12;98904.75;118302;1147;104602;-70
2020/12/24 08:42:17;;;;;;;16.40;10.75;;;;;;;10.30;79.30;98907.23;120462;1148;104448;-70
2020/12/24 08:44:54;;;;;;;33.60;23.77;;;;;;;10.31;79.12;98907.06;118423;1147;104519;-72
2020/12/24 08:47:22;;;;;;;48.55;29.80;;;;;;;10.34;78.65;98916.55;118603;1147;104900;-70
2020/12/24 08:49:50;;;;;;;61.95;31.05;;;;;;;10.36;78.78;98919.86;118345;1147;104478;-70
2020/12/24 08:52:21;;;;;;;56.43;26.20;;;;;;;10.38;79.06;98917.83;118357;1147;104453;-73
2020/12/24 08:55:00;;;;;;;45.00;25.20;;;;;;;10.40;78.94;98919.29;118709;1148;104500;-72
2020/12/24 08:57:29;;;;;;;33.63;18.67;;;;;;;10.42;78.42;98919.11;118806;1147;104470;-71
2020/12/24 08:59:58;;;;;;;118.85;50.55;;;;;;;10.43;78.09;98915.45;118855;1147;104634;-71
2020/12/24 09:02:27;;;;;;;68.90;32.10;;;;;;;10.44;78.48;98902.94;119076;1147;104584;-71
2020/12/24 09:04:57;;;;;;;25.87;12.97;;;;;;;10.45;78.53;98892.09;118959;1148;104476;-70
2020/12/24 09:07:27;;;;;;;30.33;18.07;;;;;;;10.46;79.08;98891.06;118877;1148;104544;-70
2020/12/24 09:10:07;;;;;;;53.30;30.67;;;;;;;10.49;78.70;98896.03;119032;1147;104501;-71
2020/12/24 09:12:37;;;;;;;34.80;21.10;;;;;;;10.51;78.56;98896.67;118755;1147;104467;-70
2020/12/24 09:15:07;;;;;;;20.70;13.03;;;;;;;10.51;78.41;98901.19;118517;1147;104569;-70
2020/12/24 09:17:36;;;;;;;14.50;10.40;;;;;;;10.54;79.02;98911.47;118843;1148;104595;-70
2020/12/24 09:20:09;;;;;;;11.35;6.70;;;;;;;10.56;78.81;98904.92;118996;1147;104498;-70
2020/12/24 09:22:48;;;;;;;9.50;5.80;;;;;;;10.58;78.22;98889.55;118861;1148;104546;-71
2020/12/24 09:25:29;;;;;;;20.63;12.87;;;;;;;10.64;77.99;98893.31;118856;1147;104492;-70
2020/12/24 09:27:58;;;;;;;8.88;6.03;;;;;;;10.67;77.68;98900.14;118982;1147;104559;-70
2020/12/24 09:30:26;;;;;;;9.35;5.20;;;;;;;10.67;78.67;98900.96;118974;1147;104911;-70
2020/12/24 09:32:56;;;;;;;11.53;7.50;;;;;;;10.71;78.70;98896.91;118852;1148;104487;-70
2020/12/24 09:35:26;;;;;;;9.43;5.83;;;;;;;10.73;77.93;98899.39;118824;1147;104506;-70
2020/12/24 09:37:55;;;;;;;15.33;10.47;;;;;;;10.74;77.85;98882.34;118814;1147;104546;-70
2020/12/24 09:40:24;;;;;;;16.00;10.17;;;;;;;10.75;77.98;98881.34;118736;1147;104619;-70
2020/12/24 09:42:52;;;;;;;10.55;6.20;;;;;;;10.72;78.08;98890.56;118889;1147;104569;-71
2020/12/24 09:45:21;;;;;;;13.00;8.47;;;;;;;10.70;77.64;98883.74;118828;1148;105799;-70
2020/12/24 09:47:49;;;;;;;28.23;22.27;;;;;;;10.69;77.91;98884.77;118807;1147;104447;-71
2020/12/24 09:50:17;;;;;;;20.87;13.47;;;;;;;10.69;77.79;98884.77;118940;1148;104552;-71
2020/12/24 09:52:46;;;;;;;28.60;19.75;;;;;;;10.70;77.73;98878.41;118671;1147;104508;-70
2020/12/24 09:55:14;;;;;;;17.30;11.20;;;;;;;10.75;78.00;98886.69;118497;1147;104460;-70
2020/12/24 09:57:42;;;;;;;9.90;7.20;;;;;;;10.74;77.76;98885.87;118846;1147;104545;-70
2020/12/24 10:00:12;;;;;;;18.60;10.60;;;;;;;10.76;77.31;98875.02;118687;1147;104589;-71
2020/12/24 10:02:40;;;;;;;12.03;8.07;;;;;;;10.80;77.59;98884.29;118617;1147;104526;-71
2020/12/24 10:05:08;;;;;;;10.43;6.83;;;;;;;10.81;78.12;98885.92;118750;1147;104502;-72
2020/12/24 10:07:37;;;;;;;21.93;16.67;;;;;;;10.82;77.48;98882.26;119065;1147;104539;-72
2020/12/24 10:10:05;;;;;;;13.93;8.03;;;;;;;10.82;77.91;98887.59;118644;1147;104633;-73
2020/12/24 10:12:34;;;;;;;14.30;8.77;;;;;;;10.81;77.47;98889.41;118605;1148;104472;-71
2020/12/24 10:15:02;;;;;;;15.57;10.13;;;;;;;10.81;77.65;98883.26;118773;1147;104464;-71
2020/12/24 10:17:31;;;;;;;28.30;19.45;;;;;;;10.82;77.39;98879.59;118725;1147;104469;-71
2020/12/24 10:19:59;;;;;;;22.23;15.30;;;;;;;10.85;77.10;98868.52;118889;1147;104623;-71
2020/12/24 10:22:27;;;;;;;21.40;15.87;;;;;;;10.87;76.87;98874.49;118908;1147;104450;-71
2020/12/24 10:24:55;;;;;;;36.37;21.90;;;;;;;10.87;77.07;98877.16;118859;1147;104454;-71
2020/12/24 10:27:23;;;;;;;32.77;21.97;;;;;;;10.88;77.21;98876.16;118850;1147;104819;-71
2020/12/24 10:29:51;;;;;;;28.70;17.80;;;;;;;10.87;76.92;98863.00;118842;1148;104524;-71
2020/12/24 10:32:20;;;;;;;35.47;24.20;;;;;;;10.88;77.39;98870.83;118889;1148;104481;-71
2020/12/24 10:34:48;;;;;;;34.20;23.43;;;;;;;10.90;76.99;98866.13;118979;1147;104543;-71
2020/12/24 10:37:17;;;;;;;60.50;43.60;;;;;;;10.91;76.83;98857.11;118836;1147;104468;-70
2020/12/24 10:39:45;;;;;;;40.23;24.90;;;;;;;10.90;76.81;98850.11;118912;1147;104639;-71
2020/12/24 10:42:14;;;;;;;42.07;28.70;;;;;;;10.90;76.88;98858.12;118828;1147;104507;-71
2020/12/24 10:44:43;;;;;;;40.30;27.65;;;;;;;10.90;77.10;98863.45;118799;1148;104601;-71
2020/12/24 10:47:11;;;;;;;25.55;17.70;;;;;;;10.91;77.12;98865.13;118878;1147;104535;-71
2020/12/24 10:49:41;;;;;;;31.97;20.53;;;;;;;10.93;76.82;98875.58;118863;1148;105068;-70
2020/12/24 10:52:12;;;;;;;15.87;11.80;;;;;;;10.91;76.96;98873.13;118724;1147;104499;-70
2020/12/24 10:54:40;;;;;;;15.70;11.03;;;;;;;10.92;76.89;98863.27;118977;1147;104499;-71
2020/12/24 10:57:08;;;;;;;18.30;12.73;;;;;;;10.91;76.89;98849.11;118769;1147;104470;-71
2020/12/24 10:59:37;;;;;;;14.60;10.70;;;;;;;10.91;76.47;98854.45;118891;1147;104580;-70
2020/12/24 11:02:05;;;;;;;18.20;12.97;;;;;;;10.90;76.31;98847.44;118870;1147;104595;-71
2020/12/24 11:04:33;;;;;;;44.93;29.47;;;;;;;10.89;76.02;98845.77;118707;1147;104543;-70
2020/12/24 11:07:01;;;;;;;36.23;24.70;;;;;;;10.91;76.12;98841.10;118684;1148;104460;-71
2020/12/24 11:09:29;;;;;;;20.27;13.43;;;;;;;10.90;76.14;98844.77;118913;1148;104540;-71
2020/12/24 11:11:58;;;;;;;15.20;8.47;;;;;;;10.86;75.80;98835.50;118919;1145;104550;-70
2020/12/24 11:14:28;;;;;;;12.20;7.80;;;;;;;10.83;76.93;98830.53;118792;1148;104452;-70
2020/12/24 11:17:00;;;;;;;16.53;9.93;;;;;;;10.81;76.98;98825.38;118835;1148;104472;-71
2020/12/24 11:19:28;;;;;;;16.70;10.47;;;;;;;10.81;76.55;98811.22;118839;1147;104664;-70
2020/12/24 11:21:57;;;;;;;12.00;8.40;;;;;;;10.81;76.85;98800.55;118831;1148;104535;-70